Terminal Aerodrome Forecast
Issued by NWS Sterling, VA

Current Version | Previous Version | Graphics & Text | Print | Product List | Glossary On
Versions: 1 2 3 4 5 6 7 8 9 10 11 12 13 14 15 16 17 18 19 20
000
FTUS41 KLWX 270541
TAFDCA
TAF
KDCA 270541Z 2706/2806 19005KT P6SM SCT070
     FM272000 19008KT P6SM BKN050
     FM272300 18007KT P6SM SCT050
     FM280000 18007KT P6SM FEW080 SCT250=

USA.gov is the U.S. government's official web portal to all federal, state and local government web resources and services.